Time;durP1;ratioP1;P1;durP2;ratioP2;P2;SDS_P1;SDS_P2;PMS_P1;PMS_P2;Temp;Humidity;BMP_temperature;BMP_pressure;BME280_temperature;BME280_humidity;BME280_pressure;Samples;Min_cycle;Max_cycle;Signal;HPM_P1;HPM_P2
2023/03/28 00:00:24;;;;;;;6.97;4.47;;;;;;;;;;5032819;28;20556;-75
2023/03/28 00:03:34;;;;;;;7.97;4.63;;;;;;;;;;5033216;28;21072;-75
2023/03/28 00:06:40;;;;;;;8.80;5.10;;;;;;;;;;5032963;28;20603;-74
2023/03/28 00:09:44;;;;;;;6.87;4.67;;;;;;;;;;5033998;28;20543;-75
2023/03/28 00:12:48;;;;;;;10.73;5.17;;;;;;;;;;5032912;28;20540;-75
2023/03/28 00:15:52;;;;;;;6.83;5.20;;;;;;;;;;5032855;28;20595;-75
2023/03/28 00:18:59;;;;;;;9.50;5.30;;;;;;;;;;5032284;28;20631;-75
2023/03/28 00:22:03;;;;;;;6.23;4.87;;;;;;;;;;5021186;28;20885;-75
2023/03/28 00:25:07;;;;;;;8.40;5.20;;;;;;;;;;5032758;28;20544;-74
2023/03/28 00:28:12;;;;;;;5.67;4.73;;;;;;;;;;5032740;28;20619;-75
2023/03/28 00:31:16;;;;;;;6.70;5.10;;;;;;;;;;5032376;28;20901;-75
2023/03/28 00:34:21;;;;;;;7.40;5.07;;;;;;;;;;5032567;28;20544;-75
2023/03/28 00:37:25;;;;;;;6.73;4.67;;;;;;;;;;5032553;28;20966;-74
2023/03/28 00:40:35;;;;;;;6.53;4.57;;;;;;;;;;5021505;28;20861;-75
2023/03/28 00:43:42;;;;;;;6.43;4.57;;;;;;;;;;5033025;28;20611;-75
2023/03/28 00:46:46;;;;;;;6.77;4.63;;;;;;;;;;5033242;28;20591;-74
2023/03/28 00:50:01;;;;;;;6.53;4.40;;;;;;;;;;5032886;28;20544;-75
2023/03/28 00:53:13;;;;;;;6.47;4.77;;;;;;;;;;5032630;28;20544;-75
2023/03/28 00:56:19;;;;;;;7.97;4.63;;;;;;;;;;5033152;28;20882;-75
2023/03/28 00:59:27;;;;;;;7.67;5.07;;;;;;;;;;5032339;28;20544;-75
2023/03/28 01:02:31;;;;;;;8.93;4.77;;;;;;;;;;5021025;28;20540;-75
2023/03/28 01:05:36;;;;;;;7.87;5.10;;;;;;;;;;5031932;28;20599;-75
2023/03/28 01:08:43;;;;;;;6.17;4.73;;;;;;;;;;5009369;28;21198;-75
2023/03/28 01:11:48;;;;;;;8.93;5.00;;;;;;;;;;5032240;28;20540;-75
2023/03/28 01:14:52;;;;;;;8.17;5.20;;;;;;;;;;5032150;28;20552;-75
2023/03/28 01:18:01;;;;;;;7.90;5.60;;;;;;;;;;5032106;28;20615;-75
2023/03/28 01:21:34;;;;;;;7.63;5.10;;;;;;;;;;5020849;28;20902;-75
2023/03/28 01:25:01;;;;;;;6.47;4.90;;;;;;;;;;5021096;28;20544;-74
2023/03/28 01:28:37;;;;;;;7.63;5.50;;;;;;;;;;5031661;28;21210;-75
2023/03/28 01:32:04;;;;;;;6.87;5.47;;;;;;;;;;5013489;28;20599;-75
2023/03/28 01:35:45;;;;;;;7.93;5.40;;;;;;;;;;5026780;28;20536;-75
2023/03/28 01:39:03;;;;;;;9.27;5.57;;;;;;;;;;5024450;28;20619;-75
2023/03/28 01:42:36;;;;;;;10.73;5.80;;;;;;;;;;5024288;28;20611;-75
2023/03/28 01:45:49;;;;;;;7.97;5.40;;;;;;;;;;5035643;28;20535;-75
2023/03/28 01:49:29;;;;;;;9.33;5.77;;;;;;;;;;5035324;28;20619;-75
2023/03/28 01:52:51;;;;;;;9.00;5.60;;;;;;;;;;5035777;28;20540;-75
2023/03/28 01:56:03;;;;;;;7.07;5.37;;;;;;;;;;5023961;28;20885;-75
2023/03/28 01:59:31;;;;;;;10.03;5.93;;;;;;;;;;5023730;28;20618;-75
2023/03/28 02:03:11;;;;;;;7.60;5.83;;;;;;;;;;5026718;28;20595;-74
2023/03/28 02:06:22;;;;;;;9.33;5.50;;;;;;;;;;5034909;28;21096;-75
2023/03/28 02:09:28;;;;;;;9.70;5.83;;;;;;;;;;5012872;28;20540;-75
2023/03/28 02:12:52;;;;;;;9.53;5.90;;;;;;;;;;5035437;28;21064;-75
2023/03/28 02:16:20;;;;;;;10.90;5.80;;;;;;;;;;5035087;28;20560;-74
2023/03/28 02:19:49;;;;;;;8.40;6.23;;;;;;;;;;5034857;28;20905;-74
2023/03/28 02:23:16;;;;;;;9.07;6.00;;;;;;;;;;5035011;28;20544;-75
2023/03/28 02:26:38;;;;;;;8.70;6.30;;;;;;;;;;5046279;28;20544;-74
2023/03/28 02:30:08;;;;;;;8.47;6.40;;;;;;;;;;5035636;28;20555;-75
2023/03/28 02:33:36;;;;;;;9.00;6.23;;;;;;;;;;5034807;28;20532;-74
2023/03/28 02:37:02;;;;;;;8.67;6.47;;;;;;;;;;5034763;28;20536;-75
2023/03/28 02:40:39;;;;;;;11.20;7.37;;;;;;;;;;5034486;28;20869;-74
2023/03/28 02:44:08;;;;;;;9.70;6.47;;;;;;;;;;5023070;28;20614;-75
2023/03/28 02:47:20;;;;;;;9.30;6.93;;;;;;;;;;5034128;28;21146;-75
2023/03/28 02:50:32;;;;;;;10.87;6.47;;;;;;;;;;5023039;28;20552;-75
2023/03/28 02:53:49;;;;;;;10.07;7.10;;;;;;;;;;5023104;28;20537;-75
2023/03/28 02:57:06;;;;;;;10.27;6.90;;;;;;;;;;5034050;28;20583;-74
2023/03/28 03:00:18;;;;;;;10.27;7.27;;;;;;;;;;5022809;28;20560;-75
2023/03/28 03:03:22;;;;;;;9.67;7.07;;;;;;;;;;5034433;28;20933;-75
2023/03/28 03:06:26;;;;;;;9.00;6.77;;;;;;;;;;5034133;28;20551;-75
2023/03/28 03:09:32;;;;;;;10.07;6.73;;;;;;;;;;5022741;28;20532;-75
2023/03/28 03:12:36;;;;;;;9.73;7.23;;;;;;;;;;5011086;28;20591;-74
2023/03/28 03:15:41;;;;;;;9.37;6.67;;;;;;;;;;5034343;28;20540;-75
2023/03/28 03:18:59;;;;;;;8.33;6.83;;;;;;;;;;5033750;28;20615;-75
2023/03/28 03:22:03;;;;;;;11.83;7.40;;;;;;;;;;5022340;28;20543;-75
2023/03/28 03:25:11;;;;;;;12.23;7.17;;;;;;;;;;5033775;28;20536;-75
2023/03/28 03:28:31;;;;;;;9.17;6.70;;;;;;;;;;5033352;28;20655;-75
2023/03/28 03:31:37;;;;;;;8.30;6.30;;;;;;;;;;5033483;28;20544;-75
2023/03/28 03:34:59;;;;;;;9.40;6.53;;;;;;;;;;5024633;28;20894;-74
2023/03/28 03:38:03;;;;;;;10.23;6.67;;;;;;;;;;5033304;28;20627;-74
2023/03/28 03:41:07;;;;;;;9.73;6.60;;;;;;;;;;5033309;28;20866;-75
2023/03/28 03:44:11;;;;;;;8.90;6.50;;;;;;;;;;5022006;28;20544;-75
2023/03/28 03:47:17;;;;;;;10.47;6.40;;;;;;;;;;5032897;28;20588;-75
2023/03/28 03:50:22;;;;;;;8.57;6.60;;;;;;;;;;5021438;28;20603;-74
2023/03/28 03:53:26;;;;;;;9.53;6.10;;;;;;;;;;5032066;28;21174;-74
2023/03/28 03:56:40;;;;;;;8.50;6.20;;;;;;;;;;5033471;28;20541;-74
2023/03/28 03:59:45;;;;;;;9.83;6.13;;;;;;;;;;5033293;28;20540;-74
2023/03/28 04:02:53;;;;;;;9.27;6.20;;;;;;;;;;5022198;28;20536;-74
2023/03/28 04:06:03;;;;;;;8.83;6.40;;;;;;;;;;5032794;28;20552;-74
2023/03/28 04:09:09;;;;;;;12.50;6.50;;;;;;;;;;5032702;28;20655;-74
2023/03/28 04:12:29;;;;;;;7.63;5.80;;;;;;;;;;5032766;28;20547;-74
2023/03/28 04:15:33;;;;;;;8.60;6.30;;;;;;;;;;5032948;28;20540;-74
2023/03/28 04:18:37;;;;;;;9.13;5.73;;;;;;;;;;5033692;28;20622;-74
2023/03/28 04:21:47;;;;;;;11.47;6.67;;;;;;;;;;5021416;28;20548;-75
2023/03/28 04:24:52;;;;;;;10.17;6.07;;;;;;;;;;5032950;28;20544;-75
2023/03/28 04:28:09;;;;;;;10.83;6.53;;;;;;;;;;5032414;28;20662;-75
2023/03/28 04:31:27;;;;;;;10.03;6.53;;;;;;;;;;5032507;28;20610;-75
2023/03/28 04:34:50;;;;;;;8.30;5.87;;;;;;;;;;5034218;28;20548;-74
2023/03/28 04:37:59;;;;;;;7.80;6.10;;;;;;;;;;5010116;28;20611;-74
2023/03/28 04:41:04;;;;;;;10.10;5.83;;;;;;;;;;5021056;28;20548;-74
2023/03/28 04:44:28;;;;;;;11.60;6.90;;;;;;;;;;5033491;28;20548;-74
2023/03/28 04:47:42;;;;;;;10.30;5.93;;;;;;;;;;5032353;28;20673;-75
2023/03/28 04:50:54;;;;;;;8.00;6.10;;;;;;;;;;5032332;28;20575;-75
2023/03/28 04:53:58;;;;;;;11.03;6.67;;;;;;;;;;5021427;28;20544;-74
2023/03/28 04:57:21;;;;;;;10.13;6.17;;;;;;;;;;5032533;28;21189;-74
2023/03/28 05:00:29;;;;;;;12.13;5.90;;;;;;;;;;5032148;28;20568;-74
2023/03/28 05:03:39;;;;;;;12.67;6.13;;;;;;;;;;5033181;28;20555;-74
2023/03/28 05:06:45;;;;;;;14.27;6.20;;;;;;;;;;5036432;28;20559;-75
2023/03/28 05:09:51;;;;;;;9.37;5.97;;;;;;;;;;5024959;28;20586;-75
2023/03/28 05:12:57;;;;;;;9.10;5.90;;;;;;;;;;5036284;28;20874;-75
2023/03/28 05:16:01;;;;;;;8.20;6.43;;;;;;;;;;5024564;28;20937;-75
2023/03/28 05:19:24;;;;;;;11.47;6.30;;;;;;;;;;5037189;28;20536;-74
2023/03/28 05:23:01;;;;;;;11.37;6.87;;;;;;;;;;5036067;28;20549;-75
2023/03/28 05:26:06;;;;;;;11.17;6.97;;;;;;;;;;5036033;28;20553;-75
2023/03/28 05:29:11;;;;;;;37.43;17.43;;;;;;;;;;5035602;28;20660;-75
2023/03/28 05:32:16;;;;;;;15.87;7.53;;;;;;;;;;5047043;28;20618;-75
2023/03/28 05:35:20;;;;;;;12.87;6.57;;;;;;;;;;5024403;28;21127;-75
2023/03/28 05:38:30;;;;;;;10.17;7.53;;;;;;;;;;5013432;28;20622;-74
2023/03/28 05:41:37;;;;;;;11.37;6.30;;;;;;;;;;5024485;28;21106;-75
2023/03/28 05:44:41;;;;;;;12.27;7.00;;;;;;;;;;5024613;28;21069;-75
2023/03/28 05:48:06;;;;;;;10.27;5.97;;;;;;;;;;5036156;28;20659;-75
2023/03/28 05:51:13;;;;;;;11.63;6.60;;;;;;;;;;5036002;28;20596;-75
2023/03/28 05:54:17;;;;;;;9.47;5.47;;;;;;;;;;5035694;28;20929;-75
2023/03/28 05:57:21;;;;;;;7.03;5.20;;;;;;;;;;5035338;28;20626;-74
2023/03/28 06:00:26;;;;;;;10.47;5.87;;;;;;;;;;5035163;28;20544;-74
2023/03/28 06:03:31;;;;;;;8.83;5.63;;;;;;;;;;5035267;28;20539;-74
2023/03/28 06:06:40;;;;;;;7.30;5.63;;;;;;;;;;5035063;28;21104;-75
2023/03/28 06:09:45;;;;;;;10.87;5.97;;;;;;;;;;5035038;28;20647;-74
2023/03/28 06:12:49;;;;;;;8.73;6.00;;;;;;;;;;5035056;28;20595;-74
2023/03/28 06:15:54;;;;;;;9.53;5.60;;;;;;;;;;5034087;28;20532;-75
2023/03/28 06:19:06;;;;;;;7.90;5.43;;;;;;;;;;5035430;28;20618;-74
2023/03/28 06:22:10;;;;;;;7.57;5.27;;;;;;;;;;5034768;28;20535;-75
2023/03/28 06:25:15;;;;;;;8.30;4.97;;;;;;;;;;5034896;28;20540;-74
2023/03/28 06:28:19;;;;;;;9.90;6.77;;;;;;;;;;5034586;28;20655;-74
2023/03/28 06:31:44;;;;;;;10.70;6.00;;;;;;;;;;5034901;28;20529;-74
2023/03/28 06:34:48;;;;;;;7.40;5.30;;;;;;;;;;5012190;28;20544;-75
2023/03/28 06:37:52;;;;;;;9.67;5.03;;;;;;;;;;5034575;28;20619;-74
2023/03/28 06:41:02;;;;;;;9.00;5.30;;;;;;;;;;5034318;28;20595;-74
2023/03/28 06:44:06;;;;;;;8.83;4.60;;;;;;;;;;5034312;28;20591;-75
2023/03/28 06:47:39;;;;;;;8.03;4.80;;;;;;;;;;5023076;28;20622;-74
2023/03/28 06:50:50;;;;;;;6.67;4.10;;;;;;;;;;5023012;28;20611;-75
2023/03/28 06:53:57;;;;;;;6.03;4.20;;;;;;;;;;5034182;28;20544;-75
2023/03/28 06:57:05;;;;;;;9.63;4.37;;;;;;;;;;5023242;28;20536;-74
2023/03/28 07:00:10;;;;;;;6.00;4.03;;;;;;;;;;5023079;28;21131;-75
2023/03/28 07:03:32;;;;;;;7.70;4.70;;;;;;;;;;5034152;28;21064;-75
2023/03/28 07:06:36;;;;;;;8.83;4.40;;;;;;;;;;5033896;28;20547;-74
2023/03/28 07:09:40;;;;;;;10.07;4.80;;;;;;;;;;5034103;28;21151;-74
2023/03/28 07:12:47;;;;;;;8.83;3.97;;;;;;;;;;5033915;28;20674;-74
2023/03/28 07:16:04;;;;;;;9.53;4.70;;;;;;;;;;5034208;28;20544;-74
2023/03/28 07:19:09;;;;;;;8.27;3.93;;;;;;;;;;5033630;28;20216;-74
2023/03/28 07:22:15;;;;;;;8.10;4.40;;;;;;;;;;5022646;28;20583;-75
2023/03/28 07:25:19;;;;;;;9.53;4.30;;;;;;;;;;5033772;28;20181;-74
2023/03/28 07:28:24;;;;;;;6.43;3.87;;;;;;;;;;5032576;28;20228;-74
2023/03/28 07:31:29;;;;;;;7.93;4.00;;;;;;;;;;5022408;28;20181;-74
2023/03/28 07:34:36;;;;;;;5.43;3.70;;;;;;;;;;5022656;28;20176;-74
2023/03/28 07:37:40;;;;;;;7.77;4.13;;;;;;;;;;5022419;28;20220;-74
2023/03/28 07:40:59;;;;;;;8.27;4.07;;;;;;;;;;5033754;28;20630;-74
2023/03/28 07:44:03;;;;;;;10.10;4.20;;;;;;;;;;5033182;28;20647;-74
2023/03/28 07:47:08;;;;;;;11.30;4.60;;;;;;;;;;5033515;28;20184;-74
2023/03/28 07:50:12;;;;;;;7.97;4.20;;;;;;;;;;5034080;28;20217;-74
2023/03/28 07:53:16;;;;;;;4.53;3.60;;;;;;;;;;5022291;28;20189;-74
2023/03/28 07:56:20;;;;;;;7.60;4.00;;;;;;;;;;5022025;28;20181;-74
2023/03/28 07:59:51;;;;;;;7.97;4.00;;;;;;;;;;5033885;28;20177;-74
2023/03/28 08:02:56;;;;;;;8.40;3.93;;;;;;;;;;5033200;28;20208;-75
2023/03/28 08:06:04;;;;;;;5.57;3.30;;;;;;;;;;5033236;28;20193;-74
2023/03/28 08:09:12;;;;;;;12.60;3.57;;;;;;;;;;5021432;28;20232;-74
2023/03/28 08:12:20;;;;;;;7.30;3.87;;;;;;;;;;5021543;28;20217;-74
2023/03/28 08:15:25;;;;;;;7.97;3.33;;;;;;;;;;5021306;28;20204;-75
2023/03/28 08:18:29;;;;;;;7.93;3.57;;;;;;;;;;5032726;28;20220;-75
2023/03/28 08:21:34;;;;;;;7.23;3.10;;;;;;;;;;5032654;28;20180;-74
2023/03/28 08:24:39;;;;;;;5.83;3.40;;;;;;;;;;5021715;28;20192;-75
2023/03/28 08:27:49;;;;;;;7.97;2.93;;;;;;;;;;5032641;28;20562;-75
2023/03/28 08:30:54;;;;;;;4.87;2.50;;;;;;;;;;5021425;28;20181;-75
2023/03/28 08:33:58;;;;;;;8.37;3.30;;;;;;;;;;5032565;28;20208;-75
2023/03/28 08:37:09;;;;;;;8.57;3.40;;;;;;;;;;5032341;28;20185;-75
2023/03/28 08:40:17;;;;;;;7.63;3.50;;;;;;;;;;5031996;28;20192;-75
2023/03/28 08:43:43;;;;;;;7.33;3.10;;;;;;;;;;5032137;28;20204;-74
2023/03/28 08:46:53;;;;;;;7.27;2.70;;;;;;;;;;5021218;28;20196;-75
2023/03/28 08:50:04;;;;;;;5.23;2.30;;;;;;;;;;5032351;28;20220;-74
2023/03/28 08:53:22;;;;;;;5.60;2.30;;;;;;;;;;5021349;28;20189;-75
2023/03/28 08:56:27;;;;;;;6.07;2.40;;;;;;;;;;5010113;28;20189;-75
2023/03/28 08:59:49;;;;;;;11.33;5.93;;;;;;;;;;5020727;28;20200;-75
2023/03/28 09:02:55;;;;;;;7.77;2.60;;;;;;;;;;5032364;28;20185;-75
2023/03/28 09:06:27;;;;;;;5.30;2.10;;;;;;;;;;5032202;28;20176;-74
2023/03/28 09:09:34;;;;;;;4.13;2.27;;;;;;;;;;5020861;28;20217;-75
2023/03/28 09:13:15;;;;;;;3.70;1.80;;;;;;;;;;5023739;28;20189;-74
2023/03/28 09:16:32;;;;;;;4.73;1.60;;;;;;;;;;5031966;28;20642;-75
2023/03/28 09:20:11;;;;;;;4.87;1.60;;;;;;;;;;5022294;28;20181;-75
2023/03/28 09:23:40;;;;;;;3.90;1.60;;;;;;;;;;5033247;28;20630;-75
2023/03/28 09:27:19;;;;;;;7.90;2.17;;;;;;;;;;5032224;28;20186;-75
2023/03/28 09:30:32;;;;;;;3.30;1.40;;;;;;;;;;5020594;28;20212;-75
2023/03/28 09:33:41;;;;;;;4.40;1.77;;;;;;;;;;5032119;28;20189;-75
2023/03/28 09:36:52;;;;;;;6.73;1.87;;;;;;;;;;5032049;28;20177;-75
2023/03/28 09:40:06;;;;;;;3.90;1.73;;;;;;;;;;5032287;28;20181;-75
2023/03/28 09:43:48;;;;;;;3.67;1.73;;;;;;;;;;5031665;28;20209;-75
2023/03/28 09:47:11;;;;;;;4.47;1.70;;;;;;;;;;5032184;28;20189;-75
2023/03/28 09:50:21;;;;;;;5.30;1.93;;;;;;;;;;5031828;28;20213;-75
2023/03/28 09:53:36;;;;;;;5.13;1.87;;;;;;;;;;5035815;28;20526;-75
2023/03/28 09:56:45;;;;;;;3.30;1.40;;;;;;;;;;5035404;28;20193;-75
2023/03/28 10:00:06;;;;;;;4.93;1.50;;;;;;;;;;5035930;28;20181;-75
2023/03/28 10:03:28;;;;;;;3.20;1.50;;;;;;;;;;5035096;28;20193;-74
2023/03/28 10:06:39;;;;;;;4.53;1.90;;;;;;;;;;5035210;28;20185;-75
2023/03/28 10:09:54;;;;;;;4.10;1.40;;;;;;;;;;5035202;28;20225;-75
2023/03/28 10:13:03;;;;;;;5.97;1.20;;;;;;;;;;5035244;28;20185;-75
2023/03/28 10:16:15;;;;;;;3.33;1.40;;;;;;;;;;5035280;28;20562;-75
2023/03/28 10:19:37;;;;;;;5.20;1.27;;;;;;;;;;5035043;28;20181;-75
2023/03/28 10:22:51;;;;;;;2.40;1.33;;;;;;;;;;5035054;28;20189;-75
2023/03/28 10:26:01;;;;;;;3.20;1.40;;;;;;;;;;5035510;28;20184;-75
2023/03/28 10:29:09;;;;;;;2.50;1.40;;;;;;;;;;5034692;28;20232;-74
2023/03/28 10:32:25;;;;;;;3.37;1.43;;;;;;;;;;5034954;28;20189;-74
2023/03/28 10:36:01;;;;;;;3.83;1.50;;;;;;;;;;5025951;28;20185;-75
2023/03/28 10:39:20;;;;;;;2.53;1.27;;;;;;;;;;5046172;28;20563;-75
2023/03/28 10:42:45;;;;;;;6.53;1.27;;;;;;;;;;5035241;28;20204;-75
2023/03/28 10:46:21;;;;;;;3.73;1.33;;;;;;;;;;5027442;28;20200;-75
2023/03/28 10:49:50;;;;;;;4.07;1.60;;;;;;;;;;5041108;28;20204;-74
2023/03/28 10:53:09;;;;;;;2.07;1.30;;;;;;;;;;5034712;28;20181;-74
2023/03/28 10:56:51;;;;;;;2.80;1.03;;;;;;;;;;5034460;28;20189;-74
2023/03/28 11:00:06;;;;;;;5.70;1.37;;;;;;;;;;5023020;28;20193;-74
2023/03/28 11:03:29;;;;;;;2.20;0.97;;;;;;;;;;5011736;28;20185;-74
2023/03/28 11:06:44;;;;;;;1.97;1.20;;;;;;;;;;5034817;28;20185;-75
2023/03/28 11:10:01;;;;;;;4.73;1.37;;;;;;;;;;5034104;28;20217;-74
2023/03/28 11:13:57;;;;;;;3.90;1.20;;;;;;;;;;5034390;28;20630;-75
2023/03/28 11:17:27;;;;;;;3.10;1.17;;;;;;;;;;5033856;28;20180;-74
2023/03/28 11:21:14;;;;;;;2.57;1.10;;;;;;;;;;5033694;28;20181;-75
2023/03/28 11:24:41;;;;;;;5.43;1.37;;;;;;;;;;5011717;28;20523;-75
2023/03/28 11:28:01;;;;;;;4.37;1.30;;;;;;;;;;5033924;28;20225;-75
2023/03/28 11:31:19;;;;;;;3.33;1.10;;;;;;;;;;5033853;28;20213;-75
2023/03/28 11:34:45;;;;;;;4.30;1.10;;;;;;;;;;5022195;28;20185;-75
2023/03/28 11:38:14;;;;;;;2.70;1.27;;;;;;;;;;5022374;28;20221;-77
2023/03/28 11:41:28;;;;;;;2.43;1.10;;;;;;;;;;5033713;28;20180;-74
2023/03/28 11:45:10;;;;;;;4.47;1.23;;;;;;;;;;5021988;28;20208;-75
2023/03/28 11:48:23;;;;;;;3.00;1.00;;;;;;;;;;5010952;28;20220;-75
2023/03/28 11:51:36;;;;;;;2.67;1.03;;;;;;;;;;5021645;28;20213;-74
2023/03/28 11:54:46;;;;;;;3.83;1.20;;;;;;;;;;5033168;28;20181;-75
2023/03/28 11:58:08;;;;;;;1.50;0.90;;;;;;;;;;5032908;28;20220;-75
2023/03/28 12:01:31;;;;;;;4.43;1.20;;;;;;;;;;5011550;28;20185;-74
2023/03/28 12:04:51;;;;;;;1.73;1.00;;;;;;;;;;5021678;28;20189;-75
2023/03/28 12:08:40;;;;;;;2.83;1.00;;;;;;;;;;5033383;28;20217;-75
2023/03/28 12:11:45;;;;;;;1.53;0.80;;;;;;;;;;5021779;28;20185;-75
2023/03/28 12:14:59;;;;;;;4.30;1.03;;;;;;;;;;5032368;28;20181;-75
2023/03/28 12:18:35;;;;;;;5.13;1.10;;;;;;;;;;5032567;28;20220;-75
2023/03/28 12:21:44;;;;;;;3.23;1.13;;;;;;;;;;5032450;28;20189;-75
2023/03/28 12:24:54;;;;;;;3.97;1.10;;;;;;;;;;5032672;28;20189;-74
2023/03/28 12:28:11;;;;;;;3.47;1.37;;;;;;;;;;5010852;28;20220;-75
2023/03/28 12:31:41;;;;;;;1.90;1.17;;;;;;;;;;5021353;28;20208;-75
2023/03/28 12:35:04;;;;;;;2.83;1.20;;;;;;;;;;5032485;28;20185;-75
2023/03/28 12:38:38;;;;;;;3.63;2.00;;;;;;;;;;5020913;28;20224;-75
2023/03/28 12:42:20;;;;;;;2.33;1.20;;;;;;;;;;5025289;28;20204;-75
2023/03/28 12:45:35;;;;;;;1.13;0.87;;;;;;;;;;5032154;28;20185;-76
2023/03/28 12:48:45;;;;;;;5.27;1.10;;;;;;;;;;5032359;28;20689;-75
2023/03/28 12:51:53;;;;;;;8.97;1.47;;;;;;;;;;5032290;28;20511;-75
2023/03/28 12:55:25;;;;;;;1.87;1.10;;;;;;;;;;5032340;28;20189;-74
2023/03/28 12:58:34;;;;;;;1.57;0.83;;;;;;;;;;5026155;28;20576;-76
2023/03/28 13:02:09;;;;;;;4.30;1.40;;;;;;;;;;5033350;28;20180;-75
2023/03/28 13:05:30;;;;;;;3.10;0.90;;;;;;;;;;5033309;28;20189;-75
2023/03/28 13:09:05;;;;;;;2.17;0.90;;;;;;;;;;5032470;28;20681;-76
2023/03/28 13:12:22;;;;;;;5.03;1.27;;;;;;;;;;5032537;28;20177;-76
2023/03/28 13:15:29;;;;;;;2.07;0.90;;;;;;;;;;5020970;28;20189;-77
2023/03/28 13:18:34;;;;;;;3.27;1.00;;;;;;;;;;5032990;28;20558;-76
2023/03/28 13:21:48;;;;;;;4.20;1.17;;;;;;;;;;5032083;28;20181;-76
2023/03/28 13:24:53;;;;;;;8.93;5.20;;;;;;;;;;5033914;28;20192;-76
2023/03/28 13:28:21;;;;;;;2.17;1.17;;;;;;;;;;5035935;28;20220;-76
2023/03/28 13:31:25;;;;;;;5.67;1.40;;;;;;;;;;5036542;28;20217;-76
2023/03/28 13:34:33;;;;;;;2.27;1.00;;;;;;;;;;5024614;28;20184;-76
2023/03/28 13:37:45;;;;;;;2.73;1.10;;;;;;;;;;5036718;28;20220;-76
2023/03/28 13:41:27;;;;;;;4.93;1.23;;;;;;;;;;5036663;28;20181;-77
2023/03/28 13:44:43;;;;;;;3.13;1.13;;;;;;;;;;5036485;28;20196;-76
2023/03/28 13:47:49;;;;;;;2.87;1.20;;;;;;;;;;5024372;28;20217;-76
2023/03/28 13:50:53;;;;;;;4.33;1.40;;;;;;;;;;5036364;28;20220;-76
2023/03/28 13:53:57;;;;;;;2.47;1.23;;;;;;;;;;5035719;28;20185;-76
2023/03/28 13:57:05;;;;;;;2.57;1.17;;;;;;;;;;5036040;28;20184;-76
2023/03/28 14:00:15;;;;;;;6.57;1.77;;;;;;;;;;5024164;28;20173;-76
2023/03/28 14:03:19;;;;;;;3.17;1.23;;;;;;;;;;5036222;28;20189;-77
2023/03/28 14:06:26;;;;;;;4.00;1.00;;;;;;;;;;5035312;28;20176;-76
2023/03/28 14:09:32;;;;;;;2.33;1.40;;;;;;;;;;5036489;28;20185;-77
2023/03/28 14:12:36;;;;;;;2.83;0.90;;;;;;;;;;5023841;28;20681;-77
2023/03/28 14:15:42;;;;;;;3.07;1.67;;;;;;;;;;5023822;28;20209;-76
2023/03/28 14:18:49;;;;;;;3.80;1.60;;;;;;;;;;5034809;28;20221;-76
2023/03/28 14:21:53;;;;;;;4.57;1.37;;;;;;;;;;5023491;28;20181;-77
2023/03/28 14:25:00;;;;;;;2.23;1.13;;;;;;;;;;5035774;28;20200;-75
2023/03/28 14:28:07;;;;;;;3.33;1.40;;;;;;;;;;5035125;28;20225;-76
2023/03/28 14:31:32;;;;;;;3.40;1.10;;;;;;;;;;5035128;28;20216;-76
2023/03/28 14:34:37;;;;;;;2.30;1.00;;;;;;;;;;5035068;28;20185;-76
2023/03/28 14:37:53;;;;;;;5.40;2.20;;;;;;;;;;5034600;28;20705;-76
2023/03/28 14:41:18;;;;;;;15.10;7.97;;;;;;;;;;5034520;28;20630;-76
2023/03/28 14:44:22;;;;;;;3.03;1.50;;;;;;;;;;5034579;28;20196;-76
2023/03/28 14:47:31;;;;;;;3.80;1.63;;;;;;;;;;5034359;28;20693;-76
2023/03/28 14:50:38;;;;;;;3.13;1.77;;;;;;;;;;5034469;28;20221;-76
2023/03/28 14:53:45;;;;;;;2.37;1.20;;;;;;;;;;5034353;28;20670;-76
2023/03/28 14:56:50;;;;;;;3.23;1.83;;;;;;;;;;5034917;28;20188;-76
2023/03/28 14:59:56;;;;;;;2.70;1.30;;;;;;;;;;5034032;28;20539;-76
2023/03/28 15:03:04;;;;;;;2.60;1.00;;;;;;;;;;5035125;28;20181;-76
2023/03/28 15:06:16;;;;;;;3.90;2.07;;;;;;;;;;5033874;28;20543;-76
2023/03/28 15:09:23;;;;;;;3.97;1.40;;;;;;;;;;5033845;28;20216;-76
2023/03/28 15:12:27;;;;;;;9.90;5.10;;;;;;;;;;5034986;28;20212;-76
2023/03/28 15:15:40;;;;;;;7.00;3.83;;;;;;;;;;5022571;28;20192;-76
2023/03/28 15:18:50;;;;;;;6.90;4.23;;;;;;;;;;5034818;28;20566;-76
2023/03/28 15:22:01;;;;;;;5.80;3.00;;;;;;;;;;5034390;28;20177;-76
2023/03/28 15:25:12;;;;;;;3.97;2.70;;;;;;;;;;5022453;28;20181;-76
2023/03/28 15:28:17;;;;;;;3.87;1.60;;;;;;;;;;5033459;28;20220;-76
2023/03/28 15:31:21;;;;;;;2.40;1.47;;;;;;;;;;5034143;28;20212;-76
2023/03/28 15:34:28;;;;;;;2.70;1.50;;;;;;;;;;5034431;28;20189;-76
2023/03/28 15:37:41;;;;;;;3.27;1.40;;;;;;;;;;5033528;28;20220;-75
2023/03/28 15:40:47;;;;;;;1.50;1.20;;;;;;;;;;5033433;28;20503;-75
2023/03/28 15:44:07;;;;;;;3.30;1.60;;;;;;;;;;5033060;28;20204;-75
2023/03/28 15:47:19;;;;;;;5.60;1.60;;;;;;;;;;5021773;28;20181;-76
2023/03/28 15:50:33;;;;;;;3.83;2.40;;;;;;;;;;5033615;28;20189;-76
2023/03/28 15:53:39;;;;;;;3.70;2.23;;;;;;;;;;5022085;28;20181;-76
2023/03/28 15:56:46;;;;;;;4.47;2.20;;;;;;;;;;5033922;28;20184;-76
2023/03/28 15:59:50;;;;;;;3.73;1.97;;;;;;;;;;5032988;28;20189;-76
2023/03/28 16:03:14;;;;;;;2.83;1.37;;;;;;;;;;5034022;28;20638;-76
2023/03/28 16:06:23;;;;;;;4.93;1.50;;;;;;;;;;5033979;28;20184;-76
2023/03/28 16:09:27;;;;;;;2.67;1.33;;;;;;;;;;5033002;28;20185;-76
2023/03/28 16:12:31;;;;;;;3.03;1.50;;;;;;;;;;5032888;28;20618;-76
2023/03/28 16:15:54;;;;;;;4.53;2.47;;;;;;;;;;5033712;28;20185;-77
2023/03/28 16:19:26;;;;;;;6.37;3.00;;;;;;;;;;5032658;28;20221;-76
2023/03/28 16:22:30;;;;;;;2.90;1.60;;;;;;;;;;5032806;28;20181;-76
2023/03/28 16:25:35;;;;;;;3.37;1.53;;;;;;;;;;5033060;28;20176;-77
2023/03/28 16:28:40;;;;;;;3.83;1.97;;;;;;;;;;5033294;28;20569;-77
2023/03/28 16:31:44;;;;;;;2.03;1.30;;;;;;;;;;5033344;28;20213;-77
2023/03/28 16:34:49;;;;;;;2.87;1.70;;;;;;;;;;5032635;28;20185;-77
2023/03/28 16:37:54;;;;;;;4.13;1.77;;;;;;;;;;5032938;28;20708;-76
2023/03/28 16:40:58;;;;;;;3.83;2.57;;;;;;;;;;5033352;28;20177;-77
2023/03/28 16:44:03;;;;;;;5.07;2.20;;;;;;;;;;5032181;28;20204;-77
2023/03/28 16:47:08;;;;;;;8.63;3.13;;;;;;;;;;5032309;28;20189;-77
2023/03/28 16:50:12;;;;;;;2.90;1.87;;;;;;;;;;5021165;28;20193;-76
2023/03/28 16:53:16;;;;;;;4.13;1.43;;;;;;;;;;5033230;28;20177;-77
2023/03/28 16:56:24;;;;;;;4.90;2.27;;;;;;;;;;5032823;28;20189;-76
2023/03/28 16:59:28;;;;;;;5.17;2.23;;;;;;;;;;5033215;28;20188;-77
2023/03/28 17:02:33;;;;;;;5.30;2.10;;;;;;;;;;5039754;28;20176;-76
2023/03/28 17:05:37;;;;;;;9.53;1.60;;;;;;;;;;5038701;28;20184;-76
2023/03/28 17:08:42;;;;;;;2.90;1.37;;;;;;;;;;5038775;28;20570;-76
2023/03/28 17:11:46;;;;;;;3.53;2.00;;;;;;;;;;5038528;28;20204;-76
2023/03/28 17:14:50;;;;;;;3.10;1.50;;;;;;;;;;5027207;28;20181;-75
2023/03/28 17:17:55;;;;;;;3.63;2.50;;;;;;;;;;5038641;28;20688;-75
2023/03/28 17:21:06;;;;;;;4.30;2.27;;;;;;;;;;5038565;28;20188;-76
2023/03/28 17:24:10;;;;;;;6.33;2.07;;;;;;;;;;5039268;28;20189;-75
2023/03/28 17:27:15;;;;;;;2.60;1.33;;;;;;;;;;5039095;28;20519;-74
2023/03/28 17:30:20;;;;;;;4.33;1.53;;;;;;;;;;5039296;28;20551;-75
2023/03/28 17:33:24;;;;;;;4.70;1.50;;;;;;;;;;5039410;28;20177;-75
2023/03/28 17:36:29;;;;;;;5.00;1.40;;;;;;;;;;5039072;28;20180;-75
2023/03/28 17:39:33;;;;;;;4.57;1.40;;;;;;;;;;5038640;28;20188;-76
2023/03/28 17:42:37;;;;;;;6.53;1.40;;;;;;;;;;5038887;28;20209;-76
2023/03/28 17:45:41;;;;;;;3.37;1.30;;;;;;;;;;5038115;28;20204;-77
2023/03/28 17:48:46;;;;;;;2.83;1.30;;;;;;;;;;5038431;28;20216;-74
2023/03/28 17:51:50;;;;;;;2.10;1.30;;;;;;;;;;5038976;28;20213;-76
2023/03/28 17:54:56;;;;;;;2.37;1.27;;;;;;;;;;5038802;28;20637;-76
2023/03/28 17:58:01;;;;;;;3.83;1.50;;;;;;;;;;5038749;28;20224;-76
2023/03/28 18:01:13;;;;;;;4.23;2.07;;;;;;;;;;5038138;28;20184;-76
2023/03/28 18:04:17;;;;;;;3.10;1.10;;;;;;;;;;5038272;28;20185;-77
2023/03/28 18:07:50;;;;;;;4.30;1.20;;;;;;;;;;5026849;28;20225;-76
2023/03/28 18:11:01;;;;;;;5.00;1.50;;;;;;;;;;5015149;28;20181;-76
2023/03/28 18:14:07;;;;;;;2.93;1.17;;;;;;;;;;5036070;28;20189;-76
2023/03/28 18:17:11;;;;;;;2.13;1.20;;;;;;;;;;5023765;28;20185;-76
2023/03/28 18:20:16;;;;;;;2.60;1.20;;;;;;;;;;5034992;28;20185;-75
2023/03/28 18:23:20;;;;;;;2.27;1.20;;;;;;;;;;5035494;28;20177;-75
2023/03/28 18:26:27;;;;;;;2.80;1.20;;;;;;;;;;5034762;28;20181;-76
2023/03/28 18:29:31;;;;;;;2.77;1.30;;;;;;;;;;5035019;28;20177;-75
2023/03/28 18:32:36;;;;;;;3.80;1.40;;;;;;;;;;5035478;28;20220;-75
2023/03/28 18:35:40;;;;;;;2.37;1.60;;;;;;;;;;5034652;28;20657;-76
2023/03/28 18:38:45;;;;;;;5.57;1.70;;;;;;;;;;5023037;28;20216;-76
2023/03/28 18:41:50;;;;;;;2.37;1.53;;;;;;;;;;5023145;28;20189;-76
2023/03/28 18:44:54;;;;;;;3.67;1.60;;;;;;;;;;5022962;28;20204;-75
2023/03/28 18:47:58;;;;;;;7.07;1.73;;;;;;;;;;5035286;28;20220;-75
2023/03/28 18:51:05;;;;;;;4.53;2.07;;;;;;;;;;5034929;28;20176;-74
2023/03/28 18:54:08;;;;;;;4.03;1.63;;;;;;;;;;5023166;28;20181;-75
2023/03/28 18:57:13;;;;;;;1.77;1.40;;;;;;;;;;5034979;28;20189;-74
2023/03/28 19:00:18;;;;;;;3.23;1.70;;;;;;;;;;5034110;28;20185;-75
2023/03/28 19:03:23;;;;;;;3.37;1.70;;;;;;;;;;5022951;28;20185;-75
2023/03/28 19:06:27;;;;;;;2.77;1.57;;;;;;;;;;5011324;28;20189;-75
2023/03/28 19:09:31;;;;;;;2.47;1.50;;;;;;;;;;5033829;28;20180;-75